| time (UTC) | temp F | wind direction | speed MPH | gust MPH | rain 1hr in | rain 24hr in | rain mn in | humidity % | barometer mb |
| 20260903213019 | 69 | 249 | 12.0 | 26.0 | 0.00 | 0.12 | 0.01 | 42 | 1010.5 |
| 20260903211510 | 69 | 261 | 16.0 | 23.0 | 0.00 | 0.12 | 0.01 | 43 | 1010.3 |
| 20260903210015 | 69 | 240 | 17.0 | 25.0 | 0.00 | 0.12 | 0.01 | 40 | 1010.4 |
| 20260903204509 | 69 | 223 | 17.0 | 26.0 | 0.00 | 0.12 | 0.01 | 41 | 1010.3 |
| 20260903203008 | 68 | 264 | 16.0 | 25.0 | 0.00 | 0.12 | 0.01 | 43 | 1010.3 |
| 20260903201506 | 68 | 246 | 18.0 | 29.0 | 0.00 | 0.12 | 0.01 | 43 | 1010.3 |
| 20260903200005 | 66 | 237 | 17.0 | 26.0 | 0.00 | 0.12 | 0.01 | 44 | 1010.3 |
| 20260903194507 | 67 | 234 | 18.0 | 28.0 | 0.00 | 0.12 | 0.01 | 43 | 1010.3 |
| 20260903193003 | 67 | 239 | 17.0 | 26.0 | 0.00 | 0.12 | 0.01 | 45 | 1010.2 |
| 20260903191501 | 67 | 223 | 19.0 | 27.0 | 0.00 | 0.12 | 0.01 | 44 | 1010.3 |
| 20260903190001 | 66 | 217 | 16.0 | 28.0 | 0.00 | 0.12 | 0.01 | 44 | 1010.3 |
| 20260903184602 | 66 | 221 | 15.0 | 24.0 | 0.00 | 0.12 | 0.01 | 47 | 1010.1 |
| 20260903183102 | 67 | 239 | 17.0 | 24.0 | 0.00 | 0.12 | 0.01 | 47 | 1010.1 |
| 20260903181556 | 64 | 193 | 22.0 | 27.0 | 0.00 | 0.12 | 0.01 | 50 | 1009.7 |
| 20260903180057 | 65 | 223 | 21.0 | 27.0 | 0.00 | 0.12 | 0.01 | 49 | 1009.8 |
| 20260903174556 | 65 | 244 | 15.0 | 22.0 | 0.00 | 0.12 | 0.01 | 51 | 1010.1 |
| 20260903173055 | 64 | 248 | 14.0 | 24.0 | 0.00 | 0.12 | 0.01 | 49 | 1010.2 |
| 20260903171559 | 64 | 245 | 16.0 | 25.0 | 0.00 | 0.12 | 0.01 | 49 | 1010.2 |
| 20260903170050 | 64 | 244 | 19.0 | 27.0 | 0.00 | 0.12 | 0.01 | 49 | 1010.0 |
| 20260903164550 | 63 | 223 | 16.0 | 23.0 | 0.00 | 0.12 | 0.01 | 51 | 1010.0 |
| 20260903163044 | 61 | 188 | 16.0 | 21.0 | 0.00 | 0.12 | 0.01 | 55 | 1010.0 |
| 20260903161541 | 59 | 218 | 11.0 | 14.0 | 0.00 | 0.12 | 0.01 | 59 | 1009.9 |
| 20260903160041 | 60 | 217 | 11.0 | 16.0 | 0.00 | 0.12 | 0.01 | 57 | 1009.8 |
| 20260903154538 | 59 | 226 | 13.0 | 18.0 | 0.00 | 0.12 | 0.01 | 58 | 1010.0 |
| 20260903153040 | 59 | 208 | 15.0 | 23.0 | 0.00 | 0.12 | 0.01 | 58 | 1009.9 |
| 20260903151533 | 59 | 213 | 16.0 | 22.0 | 0.00 | 0.12 | 0.01 | 56 | 1009.8 |
| 20260903150031 | 58 | 198 | 18.0 | 24.0 | 0.00 | 0.12 | 0.01 | 57 | 1009.6 |
| 20260903144528 | 57 | 201 | 16.0 | 22.0 | 0.00 | 0.12 | 0.01 | 58 | 1009.4 |
| 20260903143026 | 57 | 202 | 17.0 | 24.0 | 0.00 | 0.12 | 0.01 | 59 | 1009.2 |
| 20260903141525 | 56 | 201 | 14.0 | 22.0 | 0.00 | 0.12 | 0.01 | 61 | 1009.2 |
| 20260903140038 | 55 | 196 | 12.0 | 18.0 | 0.00 | 0.12 | 0.01 | 62 | 1009.2 |
| 20260903134525 | 54 | 200 | 11.0 | 14.0 | 0.00 | 0.12 | 0.01 | 65 | 1009.1 |
| 20260903133021 | 54 | 219 | 13.0 | 19.0 | 0.00 | 0.12 | 0.01 | 65 | 1009.0 |
| 20260903131519 | 53 | 211 | 12.0 | 18.0 | 0.00 | 0.12 | 0.01 | 66 | 1008.7 |
| 20260903130017 | 53 | 195 | 12.0 | 20.0 | 0.00 | 0.12 | 0.01 | 65 | 1008.5 |
| 20260903124524 | 53 | 203 | 14.0 | 19.0 | 0.00 | 0.12 | 0.01 | 64 | 1008.4 |
| 20260903123016 | 52 | 211 | 12.0 | 17.0 | 0.00 | 0.12 | 0.01 | 64 | 1008.3 |
| 20260903121514 | 53 | 208 | 14.0 | 24.0 | 0.00 | 0.12 | 0.01 | 61 | 1008.3 |
| 20260903120015 | 54 | 209 | 13.0 | 21.0 | 0.00 | 0.12 | 0.01 | 59 | 1008.3 |
| 20260903114513 | 56 | 209 | 16.0 | 23.0 | 0.00 | 0.12 | 0.01 | 55 | 1008.2 |
| 20260903113013 | 56 | 190 | 15.0 | 24.0 | 0.00 | 0.12 | 0.01 | 55 | 1008.1 |
| 20260903111514 | 56 | 184 | 16.0 | 23.0 | 0.00 | 0.12 | 0.01 | 56 | 1008.2 |
| 20260903110011 | 56 | 193 | 14.0 | 20.0 | 0.00 | 0.12 | 0.01 | 56 | 1008.2 |
| 20260903104510 | 56 | 200 | 15.0 | 20.0 | 0.00 | 0.12 | 0.01 | 55 | 1008.2 |
| 20260903103010 | 57 | 187 | 15.0 | 25.0 | 0.00 | 0.12 | 0.01 | 54 | 1008.1 |
| 20260903101507 | 56 | 188 | 15.0 | 22.0 | 0.00 | 0.12 | 0.01 | 56 | 1008.1 |
| 20260903100004 | 54 | 187 | 11.0 | 18.0 | 0.01 | 0.12 | 0.01 | 61 | 1008.2 |
| 20260903094510 | 55 | 194 | 14.0 | 22.0 | 0.01 | 0.12 | 0.01 | 61 | 1008.3 |
| 20260903093004 | 54 | 190 | 16.0 | 23.0 | 0.01 | 0.12 | 0.01 | 63 | 1008.2 |
| 20260903091600 | 55 | 195 | 14.0 | 22.0 | 0.01 | 0.12 | 0.01 | 63 | 1008.0 |
| 20260903090104 | 54 | 192 | 12.0 | 19.0 | 0.00 | 0.11 | 0.00 | 67 | 1007.9 |
| 20260903084555 | 53 | 198 | 10.0 | 16.0 | 0.00 | 0.11 | 0.00 | 70 | 1008.1 |
| 20260903083100 | 54 | 191 | 14.0 | 20.0 | 0.00 | 0.11 | 0.00 | 70 | 1008.0 |
| 20260903081558 | 53 | 210 | 13.0 | 17.0 | 0.00 | 0.11 | 0.00 | 71 | 1008.0 |
| 20260903080051 | 51 | 226 | 6.0 | 11.0 | 0.00 | 0.11 | 0.00 | 77 | 1008.2 |
| 20260903074553 | 51 | 230 | 9.0 | 16.0 | 0.00 | 0.11 | 0.00 | 78 | 1008.1 |
| 20260903073102 | 52 | 225 | 13.0 | 19.0 | 0.00 | 0.11 | 0.00 | 79 | 1008.1 |
| 20260903071559 | 51 | 209 | 13.0 | 19.0 | 0.00 | 0.11 | 0.00 | 83 | 1008.1 |
| 20260903070042 | 51 | 211 | 13.0 | 16.0 | 0.00 | 0.11 | 0.00 | 84 | 1008.3 |
| 20260903064539 | 51 | 216 | 14.0 | 19.0 | 0.00 | 0.11 | 0.00 | 84 | 1008.2 |
| 20260903063045 | 51 | 195 | 13.0 | 18.0 | 0.00 | 0.11 | 0.00 | 85 | 1008.2 |
| 20260903061537 | 51 | 203 | 15.0 | 22.0 | 0.00 | 0.11 | 0.00 | 87 | 1008.2 |
| 20260903060105 | 50 | 218 | 16.0 | 24.0 | 0.00 | 0.11 | 0.00 | 88 | 1008.1 |
| 20260903054533 | 50 | 224 | 19.0 | 27.0 | 0.00 | 0.11 | 0.11 | 89 | 1007.9 |
| 20260903053028 | 50 | 211 | 16.0 | 25.0 | 0.00 | 0.11 | 0.11 | 88 | 1008.2 |
| 20260903051526 | 50 | 201 | 19.0 | 28.0 | 0.00 | 0.11 | 0.11 | 86 | 1008.3 |
| 20260903050024 | 52 | 204 | 21.0 | 28.0 | 0.00 | 0.11 | 0.11 | 78 | 1008.4 |
| 20260903044523 | 51 | 205 | 16.0 | 22.0 | 0.00 | 0.11 | 0.11 | 77 | 1008.3 |
| 20260903043025 | 52 | 187 | 16.0 | 25.0 | 0.00 | 0.11 | 0.11 | 74 | 1007.9 |
| 20260903041520 | 52 | 202 | 18.0 | 23.0 | 0.00 | 0.11 | 0.11 | 74 | 1008.1 |
| 20260903040022 | 52 | 206 | 17.0 | 21.0 | 0.00 | 0.11 | 0.11 | 74 | 1008.2 |
| 20260903034519 | 52 | 189 | 12.0 | 21.0 | 0.00 | 0.11 | 0.11 | 74 | 1008.4 |
| 20260903033018 | 51 | 227 | 8.0 | 15.0 | 0.01 | 0.11 | 0.11 | 78 | 1008.1 |
| 20260903031526 | 51 | 196 | 12.0 | 20.0 | 0.01 | 0.11 | 0.11 | 78 | 1008.1 |
| 20260903030016 | 51 | 190 | 13.0 | 23.0 | 0.01 | 0.11 | 0.11 | 78 | 1008.0 |
| 20260903024513 | 52 | 217 | 17.0 | 31.0 | 0.01 | 0.11 | 0.11 | 80 | 1008.2 |
| 20260903023012 | 52 | 183 | 20.0 | 26.0 | 0.00 | 0.10 | 0.10 | 82 | 1008.6 |
| 20260903021516 | 54 | 191 | 15.0 | 23.0 | 0.00 | 0.10 | 0.10 | 78 | 1008.0 |
| 20260903020011 | 59 | 155 | 13.0 | 17.0 | 0.00 | 0.10 | 0.10 | 61 | 1008.1 |
| 20260903014507 | 56 | 198 | 4.0 | 7.0 | 0.00 | 0.10 | 0.10 | 78 | 1008.3 |
| 20260903013007 | 56 | 217 | 2.0 | 7.0 | 0.00 | 0.10 | 0.10 | 80 | 1008.3 |
| 20260903011507 | 56 | 98 | 7.0 | 13.0 | 0.01 | 0.10 | 0.10 | 83 | 1008.2 |
| 20260903010016 | 56 | 355 | 12.0 | 17.0 | 0.07 | 0.10 | 0.10 | 82 | 1009.4 |
| 20260903004504 | 57 | 183 | 2.0 | 4.0 | 0.10 | 0.10 | 0.10 | 78 | 1009.5 |
| 20260903003004 | 57 | 183 | 0.0 | 7.0 | 0.10 | 0.10 | 0.10 | 77 | 1009.4 |
| 20260903001510 | 57 | 149 | 13.0 | 31.0 | 0.09 | 0.09 | 0.09 | 74 | 1010.3 |
| 20260903000004 | 57 | 175 | 32.0 | 51.0 | 0.03 | 0.03 | 0.03 | 78 | 1010.1 |
| 20260902234623 | 58 | 170 | 39.0 | 51.0 | 0.00 | 0.00 | 0.00 | 77 | 1007.9 |
| 20260902233057 | 62 | 171 | 38.0 | 52.0 | 0.00 | 0.00 | 0.00 | 60 | 1008.0 |
| 20260902231608 | 75 | 163 | 7.0 | 12.0 | 0.00 | 0.00 | 0.00 | 36 | 1006.8 |
| 20260902230107 | 75 | 132 | 6.0 | 9.0 | 0.00 | 0.00 | 0.00 | 37 | 1006.3 |
| 20260902224552 | 76 | 194 | 6.0 | 10.0 | 0.00 | 0.00 | 0.00 | 35 | 1006.2 |
| 20260902223152 | 76 | 191 | 9.0 | 20.0 | 0.00 | 0.00 | 0.00 | 35 | 1006.4 |
| 20260902221550 | 78 | 178 | 11.0 | 22.0 | 0.00 | 0.00 | 0.00 | 31 | 1006.6 |
| 20260902220052 | 79 | 166 | 17.0 | 22.0 | 0.00 | 0.00 | 0.00 | 31 | 1006.8 |
| 20260902214548 | 78 | 159 | 18.0 | 23.0 | 0.00 | 0.00 | 0.00 | 30 | 1006.8 |